sensor_id;sensor_type;location;lat;lon;timestamp;pressure;altitude;pressure_sealevel;temperature;humidity
51245;BME280;37840;47.562;18.738;2023-02-18T00:01:01;99957.13;;;11.17;74.44
51245;BME280;37840;47.562;18.738;2023-02-18T00:03:28;99973.25;;;11.16;74.53
51245;BME280;37840;47.562;18.738;2023-02-18T00:05:54;99949.28;;;11.16;74.38
51245;BME280;37840;47.562;18.738;2023-02-18T00:08:21;99953.44;;;11.20;74.22
51245;BME280;37840;47.562;18.738;2023-02-18T00:10:47;99953.44;;;11.20;74.31
51245;BME280;37840;47.562;18.738;2023-02-18T00:13:13;99947.03;;;11.22;74.21
51245;BME280;37840;47.562;18.738;2023-02-18T00:15:39;99938.22;;;11.22;74.18
51245;BME280;37840;47.562;18.738;2023-02-18T00:18:06;99936.38;;;11.22;74.17
51245;BME280;37840;47.562;18.738;2023-02-18T00:20:32;99924.91;;;11.22;74.11
51245;BME280;37840;47.562;18.738;2023-02-18T00:23:01;99917.63;;;11.24;74.09
51245;BME280;37840;47.562;18.738;2023-02-18T00:25:27;99919.44;;;11.23;74.09
51245;BME280;37840;47.562;18.738;2023-02-18T00:27:54;99928.28;;;11.24;74.21
51245;BME280;37840;47.562;18.738;2023-02-18T00:30:19;99915.84;;;11.25;74.30
51245;BME280;37840;47.562;18.738;2023-02-18T00:32:45;99921.38;;;11.21;74.38
51245;BME280;37840;47.562;18.738;2023-02-18T00:35:11;99906.28;;;11.22;74.45
51245;BME280;37840;47.562;18.738;2023-02-18T00:37:37;99910.19;;;11.29;74.29
51245;BME280;37840;47.562;18.738;2023-02-18T00:40:04;99903.78;;;11.32;74.19
51245;BME280;37840;47.562;18.738;2023-02-18T00:42:30;99916.41;;;11.41;73.90
51245;BME280;37840;47.562;18.738;2023-02-18T00:44:55;99912.72;;;11.43;73.65
51245;BME280;37840;47.562;18.738;2023-02-18T00:47:21;99913.22;;;11.49;73.47
51245;BME280;37840;47.562;18.738;2023-02-18T00:49:47;99914.69;;;11.53;73.22
51245;BME280;37840;47.562;18.738;2023-02-18T00:52:13;99907.22;;;11.58;73.14
51245;BME280;37840;47.562;18.738;2023-02-18T00:54:39;99904.44;;;11.59;72.70
51245;BME280;37840;47.562;18.738;2023-02-18T00:57:05;99913.69;;;11.67;72.65
51245;BME280;37840;47.562;18.738;2023-02-18T00:59:31;99912.50;;;11.71;72.50
51245;BME280;37840;47.562;18.738;2023-02-18T01:01:57;99908.03;;;11.71;72.38
51245;BME280;37840;47.562;18.738;2023-02-18T01:04:23;99908.66;;;11.75;72.32
51245;BME280;37840;47.562;18.738;2023-02-18T01:06:49;99893.94;;;11.82;71.87
51245;BME280;37840;47.562;18.738;2023-02-18T01:09:15;99879.53;;;11.84;71.57
51245;BME280;37840;47.562;18.738;2023-02-18T01:11:41;99912.25;;;11.87;71.36
51245;BME280;37840;47.562;18.738;2023-02-18T01:14:06;99892.31;;;11.92;71.18
51245;BME280;37840;47.562;18.738;2023-02-18T01:16:32;99898.88;;;11.99;70.87
51245;BME280;37840;47.562;18.738;2023-02-18T01:18:58;99901.44;;;12.01;70.69
51245;BME280;37840;47.562;18.738;2023-02-18T01:21:24;99909.31;;;12.02;70.61
51245;BME280;37840;47.562;18.738;2023-02-18T01:23:50;99892.13;;;12.07;70.35
51245;BME280;37840;47.562;18.738;2023-02-18T01:26:16;99900.00;;;12.08;70.29
51245;BME280;37840;47.562;18.738;2023-02-18T01:28:43;99905.00;;;12.13;69.96
51245;BME280;37840;47.562;18.738;2023-02-18T01:31:11;99895.06;;;12.15;69.63
51245;BME280;37840;47.562;18.738;2023-02-18T01:33:37;99891.22;;;12.19;69.22
51245;BME280;37840;47.562;18.738;2023-02-18T01:36:04;99904.19;;;12.23;69.20
51245;BME280;37840;47.562;18.738;2023-02-18T01:38:30;99913.66;;;12.28;69.25
51245;BME280;37840;47.562;18.738;2023-02-18T01:40:57;99907.03;;;12.33;68.79
51245;BME280;37840;47.562;18.738;2023-02-18T01:43:23;99921.09;;;12.35;68.67
51245;BME280;37840;47.562;18.738;2023-02-18T01:46:12;99905.09;;;12.35;68.37
51245;BME280;37840;47.562;18.738;2023-02-18T01:51:22;99896.38;;;12.44;68.08
51245;BME280;37840;47.562;18.738;2023-02-18T01:59:52;99912.91;;;12.50;67.60
51245;BME280;37840;47.562;18.738;2023-02-18T02:02:21;99892.03;;;12.55;67.53
51245;BME280;37840;47.562;18.738;2023-02-18T02:04:49;99908.41;;;12.50;67.27
51245;BME280;37840;47.562;18.738;2023-02-18T02:07:17;99908.03;;;12.55;67.31
51245;BME280;37840;47.562;18.738;2023-02-18T02:09:44;99885.63;;;12.57;67.04
51245;BME280;37840;47.562;18.738;2023-02-18T02:23:37;99885.03;;;12.65;66.26
51245;BME280;37840;47.562;18.738;2023-02-18T02:32:03;99884.78;;;12.68;66.18
51245;BME280;37840;47.562;18.738;2023-02-18T02:34:49;99881.88;;;12.71;65.99
51245;BME280;37840;47.562;18.738;2023-02-18T02:37:44;99892.56;;;12.71;65.91
51245;BME280;37840;47.562;18.738;2023-02-18T02:40:23;99897.03;;;12.71;65.81
51245;BME280;37840;47.562;18.738;2023-02-18T02:43:20;99902.75;;;12.77;65.68
51245;BME280;37840;47.562;18.738;2023-02-18T02:46:09;99902.87;;;12.76;65.57
51245;BME280;37840;47.562;18.738;2023-02-18T02:48:38;99887.72;;;12.76;65.67
51245;BME280;37840;47.562;18.738;2023-02-18T02:53:41;99894.50;;;12.69;65.74
51245;BME280;37840;47.562;18.738;2023-02-18T02:56:19;99879.59;;;12.67;65.94
51245;BME280;37840;47.562;18.738;2023-02-18T02:58:54;99896.28;;;12.69;65.92
51245;BME280;37840;47.562;18.738;2023-02-18T03:12:24;99904.56;;;12.65;66.16
51245;BME280;37840;47.562;18.738;2023-02-18T03:18:19;99902.50;;;12.69;66.23
51245;BME280;37840;47.562;18.738;2023-02-18T03:20:59;99909.63;;;12.69;66.26
51245;BME280;37840;47.562;18.738;2023-02-18T03:23:32;99903.97;;;12.73;66.12
51245;BME280;37840;47.562;18.738;2023-02-18T03:25:59;99897.03;;;12.71;66.20
51245;BME280;37840;47.562;18.738;2023-02-18T03:28:28;99907.69;;;12.71;66.27
51245;BME280;37840;47.562;18.738;2023-02-18T03:31:07;99912.19;;;12.70;66.37
51245;BME280;37840;47.562;18.738;2023-02-18T03:34:06;99896.19;;;12.70;66.02
51245;BME280;37840;47.562;18.738;2023-02-18T03:36:34;99881.28;;;12.68;66.28
51245;BME280;37840;47.562;18.738;2023-02-18T03:39:14;99902.00;;;12.64;66.31
51245;BME280;37840;47.562;18.738;2023-02-18T03:41:41;99897.53;;;12.64;66.31
51245;BME280;37840;47.562;18.738;2023-02-18T03:44:08;99893.25;;;12.62;66.51
51245;BME280;37840;47.562;18.738;2023-02-18T03:46:36;99909.50;;;12.59;66.59
51245;BME280;37840;47.562;18.738;2023-02-18T03:49:03;99897.84;;;12.60;66.58
51245;BME280;37840;47.562;18.738;2023-02-18T03:51:29;99911.34;;;12.58;66.68
51245;BME280;37840;47.562;18.738;2023-02-18T03:53:55;99894.47;;;12.58;66.76
51245;BME280;37840;47.562;18.738;2023-02-18T03:56:22;99899.78;;;12.58;66.83
51245;BME280;37840;47.562;18.738;2023-02-18T03:58:48;99912.53;;;12.54;67.06
51245;BME280;37840;47.562;18.738;2023-02-18T04:01:14;99910.09;;;12.51;67.09
51245;BME280;37840;47.562;18.738;2023-02-18T04:03:41;99906.56;;;12.51;67.19
51245;BME280;37840;47.562;18.738;2023-02-18T04:06:07;99904.16;;;12.48;67.39
51245;BME280;37840;47.562;18.738;2023-02-18T04:08:33;99912.91;;;12.50;67.44
51245;BME280;37840;47.562;18.738;2023-02-18T04:10:59;99909.25;;;12.51;67.31
51245;BME280;37840;47.562;18.738;2023-02-18T04:13:26;99922.69;;;12.49;67.44
51245;BME280;37840;47.562;18.738;2023-02-18T04:15:52;99923.16;;;12.43;67.69
51245;BME280;37840;47.562;18.738;2023-02-18T04:18:18;99933.72;;;12.44;67.68
51245;BME280;37840;47.562;18.738;2023-02-18T04:20:44;99934.69;;;12.43;67.76
51245;BME280;37840;47.562;18.738;2023-02-18T04:23:13;99936.84;;;12.38;68.04
51245;BME280;37840;47.562;18.738;2023-02-18T04:25:39;99935.16;;;12.37;68.15
51245;BME280;37840;47.562;18.738;2023-02-18T04:28:05;99942.41;;;12.35;68.31
51245;BME280;37840;47.562;18.738;2023-02-18T04:30:31;99940.84;;;12.33;68.50
51245;BME280;37840;47.562;18.738;2023-02-18T04:32:57;99953.09;;;12.35;68.47
51245;BME280;37840;47.562;18.738;2023-02-18T04:35:23;99938.91;;;12.35;68.69
51245;BME280;37840;47.562;18.738;2023-02-18T04:37:49;99948.69;;;12.34;68.73
51245;BME280;37840;47.562;18.738;2023-02-18T04:40:15;99941.56;;;12.35;68.85
51245;BME280;37840;47.562;18.738;2023-02-18T04:42:41;99939.03;;;12.33;68.98
51245;BME280;37840;47.562;18.738;2023-02-18T04:45:07;99939.37;;;12.29;69.19
51245;BME280;37840;47.562;18.738;2023-02-18T04:47:33;99933.06;;;12.30;69.16
51245;BME280;37840;47.562;18.738;2023-02-18T04:49:59;99941.69;;;12.33;69.16
51245;BME280;37840;47.562;18.738;2023-02-18T04:52:25;99939.84;;;12.34;69.07
51245;BME280;37840;47.562;18.738;2023-02-18T04:54:51;99946.03;;;12.34;69.15
51245;BME280;37840;47.562;18.738;2023-02-18T04:57:17;99952.09;;;12.36;69.14
51245;BME280;37840;47.562;18.738;2023-02-18T04:59:43;99946.19;;;12.33;69.20
51245;BME280;37840;47.562;18.738;2023-02-18T05:02:09;99955.97;;;12.32;69.32
51245;BME280;37840;47.562;18.738;2023-02-18T05:04:35;99953.53;;;12.29;69.43
51245;BME280;37840;47.562;18.738;2023-02-18T05:07:01;99947.22;;;12.30;69.40
51245;BME280;37840;47.562;18.738;2023-02-18T05:09:26;99961.44;;;12.31;69.54
51245;BME280;37840;47.562;18.738;2023-02-18T05:11:52;99975.72;;;12.30;69.48
51245;BME280;37840;47.562;18.738;2023-02-18T05:14:19;99982.03;;;12.29;69.47
51245;BME280;37840;47.562;18.738;2023-02-18T05:16:45;99986.28;;;12.31;69.15
51245;BME280;37840;47.562;18.738;2023-02-18T05:19:15;99997.06;;;12.30;70.24
51245;BME280;37840;47.562;18.738;2023-02-18T05:21:42;99994.97;;;12.22;71.23
51245;BME280;37840;47.562;18.738;2023-02-18T05:24:08;100003.63;;;12.13;71.47
51245;BME280;37840;47.562;18.738;2023-02-18T05:26:35;99994.28;;;12.07;71.73
51245;BME280;37840;47.562;18.738;2023-02-18T05:29:02;99982.00;;;12.04;71.31
51245;BME280;37840;47.562;18.738;2023-02-18T05:31:28;100003.78;;;11.98;71.00
51245;BME280;37840;47.562;18.738;2023-02-18T05:33:54;99986.72;;;12.01;70.75
51245;BME280;37840;47.562;18.738;2023-02-18T05:36:20;99998.00;;;12.04;70.46
51245;BME280;37840;47.562;18.738;2023-02-18T05:38:46;100013.06;;;12.06;70.12
51245;BME280;37840;47.562;18.738;2023-02-18T05:41:12;100013.25;;;12.02;70.20
51245;BME280;37840;47.562;18.738;2023-02-18T05:43:38;100008.91;;;12.01;70.22
51245;BME280;37840;47.562;18.738;2023-02-18T05:46:23;100021.38;;;12.01;69.92
51245;BME280;37840;47.562;18.738;2023-02-18T05:48:49;100043.44;;;12.03;70.49
51245;BME280;37840;47.562;18.738;2023-02-18T05:51:15;100048.56;;;11.93;71.34
51245;BME280;37840;47.562;18.738;2023-02-18T05:53:41;100035.88;;;11.84;73.91
51245;BME280;37840;47.562;18.738;2023-02-18T05:56:06;100046.34;;;11.74;75.42
51245;BME280;37840;47.562;18.738;2023-02-18T05:58:32;100041.69;;;11.65;75.90
51245;BME280;37840;47.562;18.738;2023-02-18T06:00:58;100038.06;;;11.53;76.16
51245;BME280;37840;47.562;18.738;2023-02-18T06:03:24;100039.47;;;11.46;76.41
51245;BME280;37840;47.562;18.738;2023-02-18T06:05:51;100037.00;;;11.43;76.70
51245;BME280;37840;47.562;18.738;2023-02-18T06:08:17;100043.38;;;11.40;76.89
51245;BME280;37840;47.562;18.738;2023-02-18T06:10:45;100039.78;;;11.41;76.47
51245;BME280;37840;47.562;18.738;2023-02-18T06:13:11;100042.03;;;11.35;76.85
51245;BME280;37840;47.562;18.738;2023-02-18T06:15:37;100047.13;;;11.38;76.61
51245;BME280;37840;47.562;18.738;2023-02-18T06:18:05;100056.09;;;11.37;76.34
51245;BME280;37840;47.562;18.738;2023-02-18T06:20:31;100078.09;;;11.39;74.99
51245;BME280;37840;47.562;18.738;2023-02-18T06:22:57;100060.09;;;11.42;75.29
51245;BME280;37840;47.562;18.738;2023-02-18T06:25:23;100063.94;;;11.38;77.42
51245;BME280;37840;47.562;18.738;2023-02-18T06:27:49;100045.97;;;11.29;79.26
51245;BME280;37840;47.562;18.738;2023-02-18T06:30:15;100053.63;;;11.21;80.48
51245;BME280;37840;47.562;18.738;2023-02-18T06:32:41;100053.09;;;11.16;80.75
51245;BME280;37840;47.562;18.738;2023-02-18T06:35:07;100045.72;;;11.07;81.27
51245;BME280;37840;47.562;18.738;2023-02-18T06:37:33;100045.94;;;11.04;81.41
51245;BME280;37840;47.562;18.738;2023-02-18T06:39:59;100053.06;;;11.03;81.16
51245;BME280;37840;47.562;18.738;2023-02-18T06:42:25;100050.94;;;11.08;80.79
51245;BME280;37840;47.562;18.738;2023-02-18T06:44:51;100068.72;;;11.08;80.80
51245;BME280;37840;47.562;18.738;2023-02-18T06:47:17;100057.09;;;11.09;80.71
51245;BME280;37840;47.562;18.738;2023-02-18T06:49:43;100057.84;;;11.11;80.44
51245;BME280;37840;47.562;18.738;2023-02-18T06:52:08;100063.84;;;11.14;79.97
51245;BME280;37840;47.562;18.738;2023-02-18T06:54:34;100072.75;;;11.13;80.08
51245;BME280;37840;47.562;18.738;2023-02-18T06:57:00;100068.84;;;11.19;79.81
51245;BME280;37840;47.562;18.738;2023-02-18T06:59:26;100080.31;;;11.19;79.55
51245;BME280;37840;47.562;18.738;2023-02-18T07:01:52;100078.41;;;11.21;79.41
51245;BME280;37840;47.562;18.738;2023-02-18T07:04:18;100073.75;;;11.25;78.85
51245;BME280;37840;47.562;18.738;2023-02-18T07:06:44;100080.00;;;11.24;78.67
51245;BME280;37840;47.562;18.738;2023-02-18T07:09:10;100078.97;;;11.27;78.52
51245;BME280;37840;47.562;18.738;2023-02-18T07:11:36;100077.91;;;11.29;78.37
51245;BME280;37840;47.562;18.738;2023-02-18T07:14:02;100083.22;;;11.29;78.50
51245;BME280;37840;47.562;18.738;2023-02-18T07:16:28;100091.13;;;11.31;78.60
51245;BME280;37840;47.562;18.738;2023-02-18T07:18:54;100097.19;;;11.33;79.10
51245;BME280;37840;47.562;18.738;2023-02-18T07:21:20;100094.63;;;11.44;78.96
51245;BME280;37840;47.562;18.738;2023-02-18T07:23:46;100093.78;;;11.43;79.21
51245;BME280;37840;47.562;18.738;2023-02-18T07:26:13;100099.72;;;11.47;79.33
51245;BME280;37840;47.562;18.738;2023-02-18T07:28:40;100084.63;;;11.48;78.67
51245;BME280;37840;47.562;18.738;2023-02-18T07:31:07;100092.38;;;11.51;78.41
51245;BME280;37840;47.562;18.738;2023-02-18T07:33:33;100085.81;;;11.56;78.02
51245;BME280;37840;47.562;18.738;2023-02-18T07:36:00;100081.09;;;11.60;77.99
51245;BME280;37840;47.562;18.738;2023-02-18T07:38:27;100084.16;;;11.67;77.68
51245;BME280;37840;47.562;18.738;2023-02-18T07:40:54;100089.28;;;11.70;77.44
51245;BME280;37840;47.562;18.738;2023-02-18T07:43:20;100081.81;;;11.75;77.76
51245;BME280;37840;47.562;18.738;2023-02-18T07:45:47;100085.38;;;11.75;77.32
51245;BME280;37840;47.562;18.738;2023-02-18T07:48:13;100083.22;;;11.80;77.09
51245;BME280;37840;47.562;18.738;2023-02-18T07:50:40;100083.09;;;11.82;76.60
51245;BME280;37840;47.562;18.738;2023-02-18T07:53:07;100080.22;;;11.85;75.96
51245;BME280;37840;47.562;18.738;2023-02-18T07:55:33;100075.63;;;11.87;75.33
51245;BME280;37840;47.562;18.738;2023-02-18T07:58:19;100076.41;;;11.89;75.22
51245;BME280;37840;47.562;18.738;2023-02-18T08:00:46;100077.16;;;11.91;74.65
51245;BME280;37840;47.562;18.738;2023-02-18T08:03:16;100071.47;;;11.96;74.07
51245;BME280;37840;47.562;18.738;2023-02-18T08:05:42;100069.03;;;12.06;73.70
51245;BME280;37840;47.562;18.738;2023-02-18T08:08:17;100063.34;;;12.10;73.54
51245;BME280;37840;47.562;18.738;2023-02-18T08:10:45;100051.91;;;12.21;72.64
51245;BME280;37840;47.562;18.738;2023-02-18T08:13:12;100070.22;;;12.26;72.66
51245;BME280;37840;47.562;18.738;2023-02-18T08:15:39;100066.28;;;12.31;72.84
51245;BME280;37840;47.562;18.738;2023-02-18T08:18:06;100071.16;;;12.37;72.65
51245;BME280;37840;47.562;18.738;2023-02-18T08:20:36;100075.41;;;12.40;72.76
51245;BME280;37840;47.562;18.738;2023-02-18T08:23:04;100067.91;;;12.45;72.72
51245;BME280;37840;47.562;18.738;2023-02-18T08:25:30;100071.22;;;12.49;72.73
51245;BME280;37840;47.562;18.738;2023-02-18T08:27:56;100076.84;;;12.57;72.30
51245;BME280;37840;47.562;18.738;2023-02-18T08:30:23;100080.16;;;12.60;71.89
51245;BME280;37840;47.562;18.738;2023-02-18T08:32:49;100089.38;;;12.68;71.90
51245;BME280;37840;47.562;18.738;2023-02-18T08:35:15;100080.75;;;12.64;71.95
51245;BME280;37840;47.562;18.738;2023-02-18T08:37:41;100085.88;;;12.67;72.27
51245;BME280;37840;47.562;18.738;2023-02-18T08:40:08;100080.28;;;12.70;71.85
51245;BME280;37840;47.562;18.738;2023-02-18T08:42:34;100074.13;;;12.70;71.32
51245;BME280;37840;47.562;18.738;2023-02-18T08:45:00;100079.44;;;12.70;71.67
51245;BME280;37840;47.562;18.738;2023-02-18T08:47:26;100076.44;;;12.74;71.35
51245;BME280;37840;47.562;18.738;2023-02-18T08:49:53;100071.63;;;12.79;71.58
51245;BME280;37840;47.562;18.738;2023-02-18T08:52:19;100064.00;;;12.86;70.87
51245;BME280;37840;47.562;18.738;2023-02-18T08:54:45;100074.44;;;12.89;70.55
51245;BME280;37840;47.562;18.738;2023-02-18T08:57:31;100077.63;;;12.94;69.78
51245;BME280;37840;47.562;18.738;2023-02-18T08:59:57;100089.53;;;13.01;69.85
51245;BME280;37840;47.562;18.738;2023-02-18T09:02:23;100084.41;;;12.98;69.76
51245;BME280;37840;47.562;18.738;2023-02-18T09:08:15;100063.94;;;13.10;68.72
51245;BME280;37840;47.562;18.738;2023-02-18T09:10:41;100067.63;;;13.20;68.86
51245;BME280;37840;47.562;18.738;2023-02-18T09:13:07;100062.31;;;13.43;68.79
51245;BME280;37840;47.562;18.738;2023-02-18T09:26:37;100048.47;;;14.05;66.67
51245;BME280;37840;47.562;18.738;2023-02-18T09:32:29;100054.94;;;14.03;66.04
51245;BME280;37840;47.562;18.738;2023-02-18T09:38:36;100052.12;;;13.93;65.79
51245;BME280;37840;47.562;18.738;2023-02-18T09:48:01;100063.34;;;13.76;68.32
51245;BME280;37840;47.562;18.738;2023-02-18T09:50:48;100065.00;;;13.77;68.59
51245;BME280;37840;47.562;18.738;2023-02-18T09:53:17;100058.22;;;13.84;68.58
51245;BME280;37840;47.562;18.738;2023-02-18T09:59:12;100059.53;;;13.90;65.54
51245;BME280;37840;47.562;18.738;2023-02-18T10:01:40;100050.53;;;14.02;65.67
51245;BME280;37840;47.562;18.738;2023-02-18T10:06:38;100055.38;;;14.31;64.80
51245;BME280;37840;47.562;18.738;2023-02-18T10:09:17;100052.75;;;14.52;64.47
51245;BME280;37840;47.562;18.738;2023-02-18T10:11:51;100049.81;;;14.55;63.34
51245;BME280;37840;47.562;18.738;2023-02-18T10:14:48;100046.41;;;14.53;64.07
51245;BME280;37840;47.562;18.738;2023-02-18T10:17:15;100047.84;;;14.68;64.33
51245;BME280;37840;47.562;18.738;2023-02-18T10:19:43;100042.91;;;14.84;64.66
51245;BME280;37840;47.562;18.738;2023-02-18T10:22:12;100039.19;;;14.97;63.57
51245;BME280;37840;47.562;18.738;2023-02-18T10:24:45;100051.59;;;14.98;64.28
51245;BME280;37840;47.562;18.738;2023-02-18T10:27:20;100046.25;;;14.98;63.92
51245;BME280;37840;47.562;18.738;2023-02-18T10:29:48;100048.25;;;14.84;64.01
51245;BME280;37840;47.562;18.738;2023-02-18T10:32:32;100049.78;;;14.77;64.62
51245;BME280;37840;47.562;18.738;2023-02-18T10:35:30;100033.94;;;14.74;65.30
51245;BME280;37840;47.562;18.738;2023-02-18T10:38:14;100040.53;;;14.70;65.00
51245;BME280;37840;47.562;18.738;2023-02-18T10:46:30;100030.31;;;14.75;63.87
51245;BME280;37840;47.562;18.738;2023-02-18T10:51:58;100035.44;;;14.67;64.65
51245;BME280;37840;47.562;18.738;2023-02-18T10:54:50;100027.66;;;14.64;64.52
51245;BME280;37840;47.562;18.738;2023-02-18T10:57:22;100018.56;;;14.66;64.42
51245;BME280;37840;47.562;18.738;2023-02-18T11:00:00;100026.81;;;14.63;64.36
51245;BME280;37840;47.562;18.738;2023-02-18T11:02:29;100022.34;;;14.53;64.60
51245;BME280;37840;47.562;18.738;2023-02-18T11:04:59;100021.72;;;14.49;64.88
51245;BME280;37840;47.562;18.738;2023-02-18T11:07:33;100015.91;;;14.44;65.20
51245;BME280;37840;47.562;18.738;2023-02-18T11:10:15;100014.09;;;14.44;65.94
51245;BME280;37840;47.562;18.738;2023-02-18T11:12:45;100001.91;;;14.52;65.54
51245;BME280;37840;47.562;18.738;2023-02-18T11:17:43;100003.97;;;14.59;65.22
51245;BME280;37840;47.562;18.738;2023-02-18T11:25:27;99984.13;;;14.62;65.49
51245;BME280;37840;47.562;18.738;2023-02-18T11:30:46;99976.34;;;14.59;64.78
51245;BME280;37840;47.562;18.738;2023-02-18T11:33:36;99968.59;;;14.56;64.81
51245;BME280;37840;47.562;18.738;2023-02-18T11:38:45;99958.06;;;14.64;64.82
51245;BME280;37840;47.562;18.738;2023-02-18T11:41:15;99970.19;;;14.79;64.97
51245;BME280;37840;47.562;18.738;2023-02-18T11:43:45;99954.22;;;14.99;63.82
51245;BME280;37840;47.562;18.738;2023-02-18T11:46:13;99953.63;;;15.16;63.81
51245;BME280;37840;47.562;18.738;2023-02-18T11:48:39;99954.81;;;15.33;63.25
51245;BME280;37840;47.562;18.738;2023-02-18T11:51:17;99942.63;;;15.50;62.72
51245;BME280;37840;47.562;18.738;2023-02-18T11:56:18;99932.97;;;15.78;60.66
51245;BME280;37840;47.562;18.738;2023-02-18T11:58:47;99931.16;;;15.88;60.05
51245;BME280;37840;47.562;18.738;2023-02-18T12:01:27;99928.53;;;15.98;59.06
51245;BME280;37840;47.562;18.738;2023-02-18T12:04:04;99928.19;;;15.82;58.74
51245;BME280;37840;47.562;18.738;2023-02-18T12:11:58;99906.53;;;15.54;58.42
51245;BME280;37840;47.562;18.738;2023-02-18T12:14:26;99907.34;;;15.45;58.31
51245;BME280;37840;47.562;18.738;2023-02-18T12:20:02;99888.69;;;15.34;59.67
51245;BME280;37840;47.562;18.738;2023-02-18T12:25:23;99901.06;;;15.25;59.01
51245;BME280;37840;47.562;18.738;2023-02-18T12:36:12;99885.03;;;15.44;58.94
51245;BME280;37840;47.562;18.738;2023-02-18T12:38:59;99873.94;;;15.59;59.12
51245;BME280;37840;47.562;18.738;2023-02-18T12:44:40;99857.06;;;15.78;58.13
51245;BME280;37840;47.562;18.738;2023-02-18T12:55:30;99843.34;;;15.71;57.45
51245;BME280;37840;47.562;18.738;2023-02-18T13:03:30;99841.78;;;15.68;58.06
51245;BME280;37840;47.562;18.738;2023-02-18T13:06:28;99843.59;;;15.68;58.36
51245;BME280;37840;47.562;18.738;2023-02-18T13:14:37;99827.59;;;15.87;57.66
51245;BME280;37840;47.562;18.738;2023-02-18T13:17:08;99829.69;;;15.94;57.36
51245;BME280;37840;47.562;18.738;2023-02-18T13:22:09;99823.91;;;15.88;56.83
51245;BME280;37840;47.562;18.738;2023-02-18T13:24:39;99828.84;;;15.93;57.15
51245;BME280;37840;47.562;18.738;2023-02-18T13:27:14;99825.72;;;15.98;56.59
51245;BME280;37840;47.562;18.738;2023-02-18T13:35:26;99808.94;;;16.05;56.57
51245;BME280;37840;47.562;18.738;2023-02-18T13:38:21;99811.34;;;15.99;56.35
51245;BME280;37840;47.562;18.738;2023-02-18T13:40:51;99796.53;;;15.95;56.85
51245;BME280;37840;47.562;18.738;2023-02-18T13:46:22;99799.06;;;15.77;57.45
51245;BME280;37840;47.562;18.738;2023-02-18T13:54:02;99787.75;;;15.63;59.29
51245;BME280;37840;47.562;18.738;2023-02-18T13:56:32;99779.56;;;15.65;59.92
51245;BME280;37840;47.562;18.738;2023-02-18T13:59:08;99780.41;;;15.65;61.82
51245;BME280;37840;47.562;18.738;2023-02-18T14:01:39;99766.59;;;15.60;62.54
51245;BME280;37840;47.562;18.738;2023-02-18T14:10:26;99753.03;;;15.42;61.98
51245;BME280;37840;47.562;18.738;2023-02-18T14:20:40;99736.09;;;15.42;61.13
51245;BME280;37840;47.562;18.738;2023-02-18T14:26:04;99726.09;;;15.44;60.63
51245;BME280;37840;47.562;18.738;2023-02-18T14:31:02;99720.31;;;15.48;60.98
51245;BME280;37840;47.562;18.738;2023-02-18T14:33:34;99721.00;;;15.50;60.83
51245;BME280;37840;47.562;18.738;2023-02-18T14:39:01;99701.13;;;15.53;60.79
51245;BME280;37840;47.562;18.738;2023-02-18T14:50:10;99691.66;;;15.49;60.63
51245;BME280;37840;47.562;18.738;2023-02-18T14:52:57;99700.00;;;15.46;61.04
51245;BME280;37840;47.562;18.738;2023-02-18T14:55:29;99686.03;;;15.42;61.10
51245;BME280;37840;47.562;18.738;2023-02-18T14:58:02;99686.91;;;15.43;60.83
51245;BME280;37840;47.562;18.738;2023-02-18T15:00:34;99680.69;;;15.42;60.71
51245;BME280;37840;47.562;18.738;2023-02-18T15:03:03;99677.88;;;15.44;60.32
51245;BME280;37840;47.562;18.738;2023-02-18T15:05:37;99681.09;;;15.38;59.87
51245;BME280;37840;47.562;18.738;2023-02-18T15:08:14;99675.88;;;15.36;59.68
51245;BME280;37840;47.562;18.738;2023-02-18T15:10:59;99666.88;;;15.37;59.57
51245;BME280;37840;47.562;18.738;2023-02-18T15:13:33;99666.44;;;15.32;59.29
51245;BME280;37840;47.562;18.738;2023-02-18T15:16:03;99657.00;;;15.28;59.32
51245;BME280;37840;47.562;18.738;2023-02-18T15:18:37;99661.94;;;15.23;59.79
51245;BME280;37840;47.562;18.738;2023-02-18T15:21:07;99666.72;;;15.19;60.00
51245;BME280;37840;47.562;18.738;2023-02-18T15:23:36;99666.88;;;15.18;60.08
51245;BME280;37840;47.562;18.738;2023-02-18T15:26:03;99665.59;;;15.12;60.37
51245;BME280;37840;47.562;18.738;2023-02-18T15:28:32;99662.22;;;15.10;60.43
51245;BME280;37840;47.562;18.738;2023-02-18T15:31:00;99662.78;;;15.23;60.64
51245;BME280;37840;47.562;18.738;2023-02-18T15:33:27;99657.00;;;15.28;60.70
51245;BME280;37840;47.562;18.738;2023-02-18T15:36:06;99657.28;;;15.25;60.52
51245;BME280;37840;47.562;18.738;2023-02-18T15:38:37;99652.34;;;15.30;60.00
51245;BME280;37840;47.562;18.738;2023-02-18T15:41:10;99646.56;;;15.25;59.86
51245;BME280;37840;47.562;18.738;2023-02-18T15:43:50;99657.69;;;15.20;59.89
51245;BME280;37840;47.562;18.738;2023-02-18T15:46:17;99665.87;;;15.09;60.29
51245;BME280;37840;47.562;18.738;2023-02-18T15:48:47;99662.75;;;15.04;60.53
51245;BME280;37840;47.562;18.738;2023-02-18T15:51:18;99668.69;;;14.98;61.77
51245;BME280;37840;47.562;18.738;2023-02-18T15:53:49;99662.22;;;15.00;59.01
51245;BME280;37840;47.562;18.738;2023-02-18T15:56:30;99661.91;;;14.84;57.15
51245;BME280;37840;47.562;18.738;2023-02-18T16:01:41;99666.63;;;14.30;57.46
51245;BME280;37840;47.562;18.738;2023-02-18T16:04:07;99660.94;;;14.14;57.77
51245;BME280;37840;47.562;18.738;2023-02-18T16:06:37;99660.19;;;14.02;57.61
51245;BME280;37840;47.562;18.738;2023-02-18T16:09:28;99654.22;;;13.89;57.72
51245;BME280;37840;47.562;18.738;2023-02-18T16:11:59;99649.78;;;13.78;57.88